createdAt,value
2022-08-27T00:00:45.574Z,7.63
2022-08-27T00:03:12.055Z,6.90
2022-08-27T00:05:38.958Z,7.82
2022-08-27T00:08:06.773Z,7.63
2022-08-27T00:10:33.960Z,7.10
2022-08-27T00:13:00.765Z,7.75
2022-08-27T00:15:27.954Z,7.55
2022-08-27T00:17:54.327Z,8.40
2022-08-27T00:20:22.902Z,7.82
2022-08-27T00:22:49.765Z,8.20
2022-08-27T00:25:16.267Z,7.45
2022-08-27T00:27:42.668Z,7.82
2022-08-27T00:30:12.878Z,7.20
2022-08-27T00:32:40.335Z,8.13
2022-08-27T00:35:07.978Z,7.43
2022-08-27T00:37:34.659Z,7.40
2022-08-27T00:40:01.450Z,7.45
2022-08-27T00:42:31.034Z,7.30
2022-08-27T00:44:57.658Z,6.97
2022-08-27T00:47:25.275Z,7.90
2022-08-27T00:49:59.050Z,7.25
2022-08-27T00:52:29.902Z,7.80
2022-08-27T00:55:14.557Z,7.22
2022-08-27T01:00:13.773Z,7.85
2022-08-27T01:02:41.950Z,7.60
2022-08-27T01:05:13.590Z,7.65
2022-08-27T01:07:41.829Z,6.50
2022-08-27T01:10:12.314Z,7.68
2022-08-27T01:12:38.914Z,7.65
2022-08-27T01:15:08.342Z,6.93
2022-08-27T01:17:37.825Z,7.60
2022-08-27T01:20:09.174Z,7.55
2022-08-27T01:22:53.574Z,7.65
2022-08-27T01:25:21.450Z,8.43
2022-08-27T01:27:48.037Z,8.15
2022-08-27T01:30:16.813Z,8.20
2022-08-27T01:32:43.270Z,8.40
2022-08-27T01:35:11.837Z,8.70
2022-08-27T01:37:38.525Z,9.43
2022-08-27T01:40:06.316Z,9.00
2022-08-27T01:42:39.584Z,8.68
2022-08-27T01:45:10.199Z,9.27
2022-08-27T01:47:37.602Z,8.85
2022-08-27T01:50:08.313Z,8.20
2022-08-27T01:52:34.701Z,7.10
2022-08-27T01:55:01.179Z,8.43
2022-08-27T01:57:27.804Z,7.97
2022-08-27T01:59:57.001Z,8.45
2022-08-27T02:02:24.183Z,8.70
2022-08-27T02:04:53.250Z,8.23
2022-08-27T02:07:19.618Z,8.00
2022-08-27T02:09:46.021Z,9.35
2022-08-27T02:12:12.401Z,7.93
2022-08-27T02:14:38.757Z,7.65
2022-08-27T02:17:05.186Z,7.78
2022-08-27T02:19:31.686Z,8.02
2022-08-27T02:22:00.318Z,8.38
2022-08-27T02:24:28.429Z,8.65
2022-08-27T02:26:55.236Z,8.55
2022-08-27T02:29:22.223Z,8.20
2022-08-27T02:31:48.718Z,8.13
2022-08-27T02:34:15.191Z,6.63
2022-08-27T02:36:41.561Z,8.70
2022-08-27T02:39:08.155Z,9.15
2022-08-27T02:41:35.820Z,8.23
2022-08-27T02:44:04.561Z,6.88
2022-08-27T02:46:43.630Z,8.18
2022-08-27T02:49:10.274Z,8.57
2022-08-27T02:51:37.265Z,9.05
2022-08-27T02:54:03.784Z,8.27
2022-08-27T02:56:30.351Z,8.43
2022-08-27T02:58:56.705Z,8.95
2022-08-27T03:01:23.114Z,8.52
2022-08-27T03:03:49.526Z,7.93
2022-08-27T03:06:15.933Z,8.00
2022-08-27T03:08:52.642Z,8.95
2022-08-27T03:11:20.280Z,8.88
2022-08-27T03:13:46.645Z,8.80
2022-08-27T03:16:13.171Z,8.52
2022-08-27T03:18:39.780Z,8.73
2022-08-27T03:21:08.087Z,9.07
2022-08-27T03:23:35.303Z,8.43
2022-08-27T03:26:04.551Z,8.13
2022-08-27T03:28:33.362Z,8.15
2022-08-27T03:31:02.561Z,9.40
2022-08-27T03:33:31.842Z,8.35
2022-08-27T03:35:58.401Z,9.00
2022-08-27T03:38:25.380Z,8.25
2022-08-27T03:40:52.286Z,8.80
2022-08-27T03:43:20.867Z,9.27
2022-08-27T03:46:02.033Z,8.88
2022-08-27T03:48:30.205Z,8.68
2022-08-27T03:50:57.145Z,8.15
2022-08-27T03:53:23.520Z,8.48
2022-08-27T03:55:49.888Z,8.38
2022-08-27T03:58:17.827Z,8.88
2022-08-27T04:00:44.230Z,8.40
2022-08-27T04:03:13.052Z,7.00
2022-08-27T04:05:39.905Z,8.10
2022-08-27T04:08:06.819Z,7.82
2022-08-27T04:10:35.041Z,9.25
2022-08-27T04:13:01.509Z,9.00
2022-08-27T04:15:27.869Z,8.73
2022-08-27T04:17:54.218Z,9.15
2022-08-27T04:20:36.273Z,8.40
2022-08-27T04:23:03.908Z,6.85
2022-08-27T04:25:30.302Z,6.82
2022-08-27T04:27:57.063Z,6.82
2022-08-27T04:30:23.605Z,6.20
2022-08-27T04:32:50.507Z,7.05
2022-08-27T04:35:17.147Z,8.13
2022-08-27T04:37:43.586Z,7.03
2022-08-27T04:40:10.655Z,7.03
2022-08-27T04:42:37.084Z,6.43
2022-08-27T04:45:04.371Z,6.43
2022-08-27T04:47:30.954Z,7.25
2022-08-27T04:49:57.339Z,8.10
2022-08-27T04:52:23.723Z,8.20
2022-08-27T04:54:50.158Z,8.30
2022-08-27T04:57:16.975Z,8.55
2022-08-27T04:59:43.347Z,7.80
2022-08-27T05:02:10.702Z,7.53
2022-08-27T05:04:40.093Z,7.15
2022-08-27T05:07:07.558Z,8.45
2022-08-27T05:09:34.433Z,7.75
2022-08-27T05:12:01.589Z,7.35
2022-08-27T05:14:32.227Z,8.05
2022-08-27T05:16:59.507Z,7.70
2022-08-27T05:19:26.084Z,6.85
2022-08-27T05:21:53.877Z,8.35
2022-08-27T05:24:21.021Z,8.98
2022-08-27T05:26:47.614Z,8.05
2022-08-27T05:29:14.224Z,7.97
2022-08-27T05:31:41.501Z,6.40
2022-08-27T05:34:10.612Z,7.32
2022-08-27T05:36:47.801Z,7.32
2022-08-27T05:39:16.128Z,7.53
2022-08-27T05:41:42.947Z,8.07
2022-08-27T05:44:37.286Z,7.32
2022-08-27T05:46:56.624Z,6.70
2022-08-27T05:49:22.993Z,7.05
2022-08-27T05:51:49.433Z,7.15
2022-08-27T05:54:19.503Z,7.88
2022-08-27T05:56:46.518Z,8.02
2022-08-27T05:59:31.715Z,6.82
2022-08-27T06:02:01.241Z,7.13
2022-08-27T06:04:27.741Z,7.57
2022-08-27T06:06:54.582Z,6.82
2022-08-27T06:09:24.042Z,6.10
2022-08-27T06:11:50.670Z,6.93
2022-08-27T06:14:17.025Z,7.70
2022-08-27T06:16:43.874Z,7.45
2022-08-27T06:19:12.071Z,7.90
2022-08-27T06:21:39.874Z,6.18
2022-08-27T06:24:06.756Z,7.25
2022-08-27T06:26:33.173Z,7.57
2022-08-27T06:29:04.657Z,7.75
2022-08-27T06:31:31.189Z,7.32
2022-08-27T06:34:00.718Z,7.15
2022-08-27T06:36:35.972Z,7.80
2022-08-27T06:39:02.435Z,7.25
2022-08-27T06:41:29.302Z,7.85
2022-08-27T06:43:56.731Z,7.45
2022-08-27T06:46:26.097Z,7.30
2022-08-27T06:48:57.293Z,6.95
2022-08-27T06:51:27.491Z,7.60
2022-08-27T06:53:55.750Z,7.32
2022-08-27T06:56:22.631Z,6.50
2022-08-27T06:58:52.745Z,6.15
2022-08-27T07:01:22.330Z,5.38
2022-08-27T07:03:49.352Z,5.50
2022-08-27T07:06:17.003Z,5.60
2022-08-27T07:08:44.672Z,5.03
2022-08-27T07:11:20.111Z,5.10
2022-08-27T07:13:48.195Z,4.70
2022-08-27T07:16:17.382Z,4.90
2022-08-27T07:18:44.049Z,4.47
2022-08-27T07:21:10.477Z,4.47
2022-08-27T07:23:38.602Z,4.40
2022-08-27T07:26:09.310Z,4.03
2022-08-27T07:28:37.971Z,5.03
2022-08-27T07:31:05.903Z,4.68
2022-08-27T07:33:32.370Z,4.70
2022-08-27T07:35:58.733Z,5.30
2022-08-27T07:38:25.127Z,4.65
2022-08-27T07:40:52.370Z,5.57
2022-08-27T07:43:37.276Z,5.43
2022-08-27T07:46:04.183Z,4.82
2022-08-27T07:48:33.081Z,5.43
2022-08-27T07:51:05.141Z,5.20
2022-08-27T07:53:32.993Z,5.68
2022-08-27T07:56:07.140Z,5.00
2022-08-27T07:58:33.842Z,5.90
2022-08-27T08:01:00.252Z,4.68
2022-08-27T08:03:27.915Z,4.20
2022-08-27T08:05:55.026Z,4.90
2022-08-27T08:08:22.419Z,4.72
2022-08-27T08:10:49.143Z,4.60
2022-08-27T08:13:19.387Z,4.00
2022-08-27T08:15:46.880Z,4.68
2022-08-27T08:18:14.072Z,3.83
2022-08-27T08:20:57.215Z,4.38
2022-08-27T08:23:24.688Z,3.90
2022-08-27T08:25:51.061Z,4.60
2022-08-27T08:28:17.474Z,4.13
2022-08-27T08:30:44.199Z,3.60
2022-08-27T08:33:13.498Z,3.85
2022-08-27T08:35:41.291Z,4.25
2022-08-27T08:38:08.645Z,4.55
2022-08-27T08:40:50.158Z,4.43
2022-08-27T08:43:30.434Z,4.60
2022-08-27T08:45:59.998Z,4.03
2022-08-27T08:48:27.423Z,3.90
2022-08-27T08:51:02.335Z,4.20
2022-08-27T08:54:04.633Z,4.03
2022-08-27T08:56:40.566Z,4.38
2022-08-27T08:59:38.170Z,4.43
2022-08-27T09:02:09.162Z,4.53
2022-08-27T09:04:39.090Z,4.55
2022-08-27T09:07:15.748Z,4.72
2022-08-27T09:09:50.726Z,4.88
2022-08-27T09:12:19.216Z,4.53
2022-08-27T09:15:09.310Z,4.47
2022-08-27T09:17:40.081Z,4.32
2022-08-27T09:20:08.621Z,4.53
2022-08-27T09:22:54.143Z,4.13
2022-08-27T09:25:25.448Z,5.45
2022-08-27T09:27:54.567Z,4.05
2022-08-27T09:30:27.451Z,4.88
2022-08-27T09:33:04.043Z,3.83
2022-08-27T09:35:42.352Z,4.55
2022-08-27T09:38:09.399Z,4.20
2022-08-27T09:40:42.732Z,4.05
2022-08-27T09:43:22.478Z,4.07
2022-08-27T09:45:54.226Z,4.40
2022-08-27T09:48:23.374Z,4.47
2022-08-27T09:50:52.914Z,4.18
2022-08-27T09:53:44.802Z,4.03
2022-08-27T09:56:30.837Z,4.07
2022-08-27T09:59:02.600Z,4.30
2022-08-27T10:01:32.568Z,4.15
2022-08-27T10:04:14.159Z,3.97
2022-08-27T10:06:51.119Z,4.43
2022-08-27T10:09:26.785Z,4.03
2022-08-27T10:12:07.516Z,4.47
2022-08-27T10:14:46.561Z,4.45
2022-08-27T10:17:22.098Z,4.45
2022-08-27T10:20:10.626Z,4.25
2022-08-27T10:22:42.967Z,4.63
2022-08-27T10:25:17.695Z,4.25
2022-08-27T10:28:13.082Z,3.78
2022-08-27T10:30:58.103Z,3.92
2022-08-27T10:33:38.915Z,4.22
2022-08-27T10:36:30.926Z,3.88
2022-08-27T10:39:34.915Z,3.90
2022-08-27T10:42:21.624Z,4.10
2022-08-27T10:44:57.827Z,4.18
2022-08-27T10:47:50.566Z,4.50
2022-08-27T10:50:41.477Z,3.83
2022-08-27T10:53:34.529Z,4.22
2022-08-27T10:56:18.818Z,3.97
2022-08-27T10:58:59.921Z,4.03
2022-08-27T11:01:43.857Z,4.75
2022-08-27T11:04:26.590Z,3.92
2022-08-27T11:06:57.911Z,4.25
2022-08-27T11:09:37.345Z,3.80
2022-08-27T11:12:14.214Z,4.05
2022-08-27T11:14:55.143Z,3.92
2022-08-27T11:17:33.133Z,4.22
2022-08-27T11:20:21.598Z,3.90
2022-08-27T11:22:51.731Z,3.85
2022-08-27T11:25:39.157Z,3.97
2022-08-27T11:28:06.345Z,4.30
2022-08-27T11:30:46.237Z,3.50
2022-08-27T11:33:37.657Z,3.92
2022-08-27T11:36:23.037Z,3.90
2022-08-27T11:38:58.687Z,3.90
2022-08-27T11:41:55.362Z,4.45
2022-08-27T11:44:24.276Z,4.55
2022-08-27T11:47:08.297Z,3.97
2022-08-27T11:49:44.143Z,5.07
2022-08-27T11:52:12.854Z,4.40
2022-08-27T11:54:52.243Z,4.05
2022-08-27T11:57:30.540Z,4.15
2022-08-27T11:59:57.394Z,4.15
2022-08-27T12:02:28.051Z,4.00
2022-08-27T12:05:07.114Z,3.92
2022-08-27T12:07:35.694Z,4.00
2022-08-27T12:10:30.420Z,3.83
2022-08-27T12:13:03.785Z,4.40
2022-08-27T12:15:49.126Z,4.20
2022-08-27T12:18:37.074Z,4.05
2022-08-27T12:21:13.371Z,4.47
2022-08-27T12:23:50.882Z,4.15
2022-08-27T12:26:27.518Z,3.80
2022-08-27T12:29:16.714Z,4.07
2022-08-27T12:31:45.264Z,4.47
2022-08-27T12:34:15.926Z,4.40
2022-08-27T12:36:48.498Z,4.60
2022-08-27T12:39:23.114Z,4.63
2022-08-27T12:41:50.919Z,4.65
2022-08-27T12:44:27.320Z,3.97
2022-08-27T12:46:59.317Z,4.70
2022-08-27T12:49:38.341Z,4.10
2022-08-27T12:52:17.508Z,3.75
2022-08-27T12:55:12.725Z,3.65
2022-08-27T12:58:05.973Z,3.53
2022-08-27T13:00:45.117Z,3.80
2022-08-27T13:03:29.077Z,3.50
2022-08-27T13:05:57.441Z,4.20
2022-08-27T13:08:27.908Z,3.78
2022-08-27T13:10:54.924Z,3.70
2022-08-27T13:13:23.855Z,3.90
2022-08-27T13:15:55.791Z,4.50
2022-08-27T13:18:22.839Z,3.88
2022-08-27T13:20:53.388Z,3.65
2022-08-27T13:23:23.761Z,4.07
2022-08-27T13:25:56.171Z,3.72
2022-08-27T13:28:25.203Z,4.93
2022-08-27T13:30:52.671Z,3.30
2022-08-27T13:33:24.475Z,3.78
2022-08-27T13:35:51.220Z,3.72
2022-08-27T13:38:18.617Z,3.92
2022-08-27T13:40:58.128Z,4.32
2022-08-27T13:43:42.190Z,4.00
2022-08-27T13:46:32.629Z,3.85
2022-08-27T13:48:59.503Z,3.90
2022-08-27T13:51:29.398Z,4.05
2022-08-27T13:54:15.205Z,3.40
2022-08-27T13:57:08.256Z,4.18
2022-08-27T13:59:42.949Z,4.07
2022-08-27T14:02:10.284Z,4.30
2022-08-27T14:04:42.886Z,3.58
2022-08-27T14:07:23.742Z,3.50
2022-08-27T14:09:56.237Z,3.65
2022-08-27T14:12:33.075Z,3.40
2022-08-27T14:15:12.938Z,3.53
2022-08-27T14:17:39.397Z,3.72
2022-08-27T14:20:06.769Z,4.10
2022-08-27T14:22:35.705Z,3.83
2022-08-27T14:25:02.446Z,3.83
2022-08-27T14:27:28.895Z,3.63
2022-08-27T14:29:55.526Z,3.80
2022-08-27T14:32:22.050Z,3.67
2022-08-27T14:34:48.446Z,4.40
2022-08-27T14:37:15.312Z,3.97
2022-08-27T14:39:43.253Z,4.03
2022-08-27T14:42:12.291Z,3.95
2022-08-27T14:44:38.854Z,4.22
2022-08-27T14:47:09.584Z,4.18
2022-08-27T14:49:39.274Z,4.15
2022-08-27T14:52:06.734Z,4.30
2022-08-27T14:54:33.591Z,4.53
2022-08-27T14:57:02.785Z,3.80
2022-08-27T14:59:29.308Z,4.05
2022-08-27T15:01:56.875Z,3.80
2022-08-27T15:04:25.122Z,4.10
2022-08-27T15:06:52.922Z,3.90
2022-08-27T15:09:19.647Z,3.30
2022-08-27T15:11:47.423Z,3.95
2022-08-27T15:14:22.129Z,4.25
2022-08-27T15:16:48.529Z,4.40
2022-08-27T15:19:15.515Z,3.80
2022-08-27T15:21:44.698Z,3.65
2022-08-27T15:24:19.758Z,4.05
2022-08-27T15:26:46.301Z,3.45
2022-08-27T15:29:12.692Z,3.58
2022-08-27T15:31:39.394Z,3.78
2022-08-27T15:34:06.473Z,3.67
2022-08-27T15:36:33.186Z,3.55
2022-08-27T15:38:59.543Z,3.30
2022-08-27T15:41:29.163Z,3.45
2022-08-27T15:43:56.246Z,3.88
2022-08-27T15:46:22.874Z,3.58
2022-08-27T15:48:49.342Z,3.78
2022-08-27T15:51:16.646Z,3.92
2022-08-27T15:53:43.122Z,3.50
2022-08-27T15:56:09.578Z,3.55
2022-08-27T15:58:36.809Z,2.97
2022-08-27T16:01:06.192Z,3.38
2022-08-27T16:03:35.988Z,3.38
2022-08-27T16:06:05.075Z,3.28
2022-08-27T16:08:32.375Z,2.90
2022-08-27T16:11:03.797Z,3.17
2022-08-27T16:13:30.894Z,3.42
2022-08-27T16:15:57.480Z,3.28
2022-08-27T16:18:33.862Z,3.08
2022-08-27T16:21:01.617Z,3.50
2022-08-27T16:23:29.426Z,3.58
2022-08-27T16:25:56.459Z,3.40
2022-08-27T16:28:23.490Z,3.08
2022-08-27T16:30:51.493Z,3.30
2022-08-27T16:33:18.803Z,2.90
2022-08-27T16:35:45.333Z,3.53
2022-08-27T16:38:12.170Z,3.30
2022-08-27T16:40:43.939Z,3.42
2022-08-27T16:43:20.717Z,3.25
2022-08-27T16:45:51.482Z,3.08
2022-08-27T16:48:37.304Z,3.22
2022-08-27T16:51:05.654Z,3.38
2022-08-27T16:53:34.467Z,2.92
2022-08-27T16:56:01.602Z,2.72
2022-08-27T16:58:30.108Z,3.15
2022-08-27T17:01:03.372Z,2.60
2022-08-27T17:03:44.130Z,2.50
2022-08-27T17:06:20.849Z,2.90
2022-08-27T17:08:49.595Z,2.95
2022-08-27T17:11:22.258Z,2.65
2022-08-27T17:13:50.289Z,2.80
2022-08-27T17:16:20.665Z,2.90
2022-08-27T17:18:48.333Z,2.95
2022-08-27T17:21:16.651Z,2.45
2022-08-27T17:23:45.961Z,2.67
2022-08-27T17:26:13.327Z,2.30
2022-08-27T17:28:40.788Z,2.40
2022-08-27T17:31:08.484Z,2.38
2022-08-27T17:33:41.441Z,2.60
2022-08-27T17:36:09.054Z,2.30
2022-08-27T17:38:38.074Z,2.25
2022-08-27T17:41:33.943Z,2.95
2022-08-27T17:44:04.729Z,2.88
2022-08-27T17:46:31.288Z,2.72
2022-08-27T17:48:57.764Z,2.55
2022-08-27T17:51:24.218Z,2.40
2022-08-27T17:53:59.932Z,2.53
2022-08-27T17:56:27.254Z,2.65
2022-08-27T17:58:54.303Z,2.97
2022-08-27T18:01:28.326Z,2.80
2022-08-27T18:03:57.574Z,2.47
2022-08-27T18:06:25.437Z,2.88
2022-08-27T18:08:52.307Z,2.90
2022-08-27T18:11:18.890Z,2.83
2022-08-27T18:13:48.187Z,2.90
2022-08-27T18:16:14.587Z,3.20
2022-08-27T18:18:41.295Z,3.38
2022-08-27T18:21:08.454Z,3.58
2022-08-27T18:23:36.848Z,4.00
2022-08-27T18:26:04.795Z,3.22
2022-08-27T18:28:31.265Z,3.75
2022-08-27T18:30:57.836Z,3.50
2022-08-27T18:33:24.242Z,3.33
2022-08-27T18:35:50.644Z,3.58
2022-08-27T18:38:18.415Z,3.20
2022-08-27T18:40:47.288Z,4.07
2022-08-27T18:43:14.526Z,3.55
2022-08-27T18:45:41.251Z,3.15
2022-08-27T18:48:21.120Z,2.90
2022-08-27T18:50:53.363Z,2.85
2022-08-27T18:53:20.375Z,3.13
2022-08-27T18:55:47.482Z,2.80
2022-08-27T18:58:13.969Z,3.22
2022-08-27T19:00:41.959Z,3.25
2022-08-27T19:03:08.879Z,3.00
2022-08-27T19:05:35.903Z,3.15
2022-08-27T19:08:02.527Z,2.80
2022-08-27T19:10:29.136Z,3.42
2022-08-27T19:12:55.538Z,3.10
2022-08-27T19:15:22.103Z,2.70
2022-08-27T19:17:51.161Z,3.17
2022-08-27T19:20:18.504Z,2.65
2022-08-27T19:22:46.231Z,2.80
2022-08-27T19:25:12.859Z,3.17
2022-08-27T19:27:39.523Z,3.15
2022-08-27T19:30:07.335Z,3.13
2022-08-27T19:32:33.952Z,2.92
2022-08-27T19:35:00.758Z,2.80
2022-08-27T19:37:29.537Z,3.10
2022-08-27T19:39:56.289Z,3.03
2022-08-27T19:42:22.773Z,3.15
2022-08-27T19:44:49.214Z,3.38
2022-08-27T19:47:16.915Z,3.47
2022-08-27T19:49:49.566Z,3.63
2022-08-27T19:52:16.113Z,3.05
2022-08-27T19:55:03.350Z,3.10
2022-08-27T19:57:28.900Z,3.25
2022-08-27T19:59:55.258Z,3.10
2022-08-27T20:02:21.682Z,3.15
2022-08-27T20:05:14.254Z,3.47
2022-08-27T20:07:35.218Z,3.20
2022-08-27T20:10:08.548Z,2.90
2022-08-27T20:12:36.081Z,3.43
2022-08-27T20:15:02.650Z,3.38
2022-08-27T20:17:29.441Z,3.65
2022-08-27T20:19:55.889Z,3.28
2022-08-27T20:22:22.302Z,2.92
2022-08-27T20:24:48.709Z,3.35
2022-08-27T20:27:15.088Z,3.30
2022-08-27T20:29:42.042Z,3.10
2022-08-27T20:32:08.672Z,2.60
2022-08-27T20:34:35.095Z,3.10
2022-08-27T20:37:02.461Z,3.28
2022-08-27T20:39:28.934Z,2.80
2022-08-27T20:41:55.326Z,4.18
2022-08-27T20:44:21.717Z,3.20
2022-08-27T20:46:51.164Z,2.83
2022-08-27T20:49:18.634Z,3.20
2022-08-27T20:51:51.377Z,2.70
2022-08-27T20:54:29.956Z,3.00
2022-08-27T20:56:56.319Z,3.20
2022-08-27T20:59:41.303Z,2.97
2022-08-27T21:02:10.425Z,2.70
2022-08-27T21:04:47.674Z,3.10
2022-08-27T21:07:15.947Z,2.97
2022-08-27T21:09:55.600Z,2.95
2022-08-27T21:12:26.924Z,3.20
2022-08-27T21:14:55.871Z,2.95
2022-08-27T21:17:24.562Z,3.47
2022-08-27T21:19:51.180Z,3.03
2022-08-27T21:22:17.765Z,2.60
2022-08-27T21:24:46.194Z,2.70
2022-08-27T21:27:12.574Z,3.20
2022-08-27T21:29:39.086Z,3.15
2022-08-27T21:32:05.608Z,3.17
2022-08-27T21:34:31.978Z,3.17
2022-08-27T21:36:58.982Z,2.75
2022-08-27T21:39:25.404Z,2.97
2022-08-27T21:41:51.810Z,3.28
2022-08-27T21:44:18.171Z,2.90
2022-08-27T21:46:44.649Z,3.00
2022-08-27T21:49:11.197Z,3.50
2022-08-27T21:51:37.733Z,3.10
2022-08-27T21:54:04.186Z,3.55
2022-08-27T21:56:31.616Z,2.92
2022-08-27T21:58:58.002Z,3.22
2022-08-27T22:01:24.496Z,2.72
2022-08-27T22:03:51.530Z,3.15
2022-08-27T22:06:18.878Z,3.20
2022-08-27T22:08:45.392Z,3.67
2022-08-27T22:11:11.925Z,3.63
2022-08-27T22:13:38.941Z,3.47
2022-08-27T22:16:05.451Z,3.20
2022-08-27T22:18:32.077Z,3.45
2022-08-27T22:20:59.044Z,3.38
2022-08-27T22:23:26.469Z,2.97
2022-08-27T22:25:52.849Z,3.90
2022-08-27T22:28:19.353Z,3.40
2022-08-27T22:30:46.154Z,3.28
2022-08-27T22:33:13.026Z,3.65
2022-08-27T22:35:40.583Z,3.40
2022-08-27T22:38:07.411Z,4.10
2022-08-27T22:40:35.620Z,3.55
2022-08-27T22:43:03.826Z,4.10
2022-08-27T22:45:30.345Z,3.67
2022-08-27T22:47:57.448Z,3.40
2022-08-27T22:50:24.336Z,3.05
2022-08-27T22:52:50.859Z,3.63
2022-08-27T22:55:19.365Z,3.20
2022-08-27T22:57:55.389Z,3.50
2022-08-27T23:00:25.266Z,3.17
2022-08-27T23:02:51.917Z,3.20
2022-08-27T23:05:18.745Z,3.40
2022-08-27T23:07:45.309Z,4.00
2022-08-27T23:10:14.606Z,3.60
2022-08-27T23:12:41.014Z,3.17
2022-08-27T23:15:11.740Z,3.45
2022-08-27T23:17:38.204Z,3.55
2022-08-27T23:20:06.461Z,3.50
2022-08-27T23:22:32.923Z,3.40
2022-08-27T23:25:17.849Z,3.50
2022-08-27T23:27:44.216Z,3.15
2022-08-27T23:30:11.907Z,3.13
2022-08-27T23:32:38.518Z,3.00
2022-08-27T23:35:14.394Z,2.75
2022-08-27T23:37:43.679Z,3.28
2022-08-27T23:40:12.633Z,2.83
2022-08-27T23:42:43.192Z,3.13
2022-08-27T23:45:12.641Z,2.90
2022-08-27T23:47:39.010Z,3.08
2022-08-27T23:50:06.598Z,2.90
2022-08-27T23:52:33.039Z,3.10
2022-08-27T23:54:59.429Z,3.00
2022-08-27T23:57:25.987Z,2.97
2022-08-27T23:59:52.479Z,2.90
